Time;durP1;ratioP1;P1;durP2;ratioP2;P2;SDS_P1;SDS_P2;PMS_P1;PMS_P2;Temp;Humidity;BMP_temperature;BMP_pressure;BME280_temperature;BME280_humidity;BME280_pressure;Samples;Min_cycle;Max_cycle;Signal;HPM_P1;HPM_P2
2024/01/29 06:02:30;;;;;;;12.07;7.28;;;1.00;84.20;;;;;;4037915;29;20414;-75
2024/01/29 06:04:32;;;;;;;12.32;7.68;;;1.00;84.00;;;;;;4039556;29;20108;-75
2024/01/29 06:06:34;;;;;;;13.05;7.47;;;1.00;84.10;;;;;;4039126;29;20053;-76
2024/01/29 06:08:36;;;;;;;12.10;7.65;;;1.00;84.10;;;;;;4039111;29;20077;-74
2024/01/29 06:10:38;;;;;;;12.77;8.20;;;1.10;84.00;;;;;;4039429;29;20395;-75
2024/01/29 06:12:39;;;;;;;12.38;7.80;;;1.10;84.10;;;;;;4039155;29;20048;-75
2024/01/29 06:14:41;;;;;;;12.77;7.50;;;1.10;84.20;;;;;;4039137;29;20053;-76
2024/01/29 06:16:43;;;;;;;12.38;7.28;;;1.10;84.00;;;;;;4039302;29;20057;-75
2024/01/29 06:18:46;;;;;;;11.05;7.35;;;1.10;83.90;;;;;;4039375;29;20103;-74
2024/01/29 06:20:49;;;;;;;13.38;7.47;;;1.10;83.80;;;;;;4039239;29;20049;-76
2024/01/29 06:22:50;;;;;;;13.15;7.68;;;1.10;83.60;;;;;;4039349;29;20075;-76
2024/01/29 06:24:52;;;;;;;13.13;7.90;;;1.10;83.40;;;;;;4039153;29;20398;-76
2024/01/29 06:26:54;;;;;;;14.98;7.90;;;1.00;82.90;;;;;;4039037;29;20052;-76
2024/01/29 06:28:56;;;;;;;15.23;7.72;;;0.90;84.00;;;;;;4038953;29;20045;-76
2024/01/29 06:30:58;;;;;;;12.20;7.97;;;0.80;85.30;;;;;;4039058;29;20053;-74
2024/01/29 06:33:00;;;;;;;16.15;9.40;;;0.80;85.70;;;;;;4038790;29;20053;-76
2024/01/29 06:35:03;;;;;;;15.45;9.40;;;0.90;86.10;;;;;;4038678;29;20113;-76
2024/01/29 06:37:05;;;;;;;56.97;24.60;;;0.90;86.60;;;;;;4038791;29;20057;-77
2024/01/29 06:39:08;;;;;;;53.35;22.85;;;0.80;87.20;;;;;;4038615;29;20136;-76
2024/01/29 06:41:19;;;;;;;29.00;14.35;;;0.80;87.50;;;;;;4038839;29;20080;-75
2024/01/29 06:43:21;;;;;;;19.85;11.20;;;0.80;87.60;;;;;;4038813;29;20109;-76
2024/01/29 06:45:22;;;;;;;17.70;10.35;;;0.90;87.00;;;;;;4038669;29;20388;-76
2024/01/29 06:47:24;;;;;;;14.35;9.05;;;0.80;87.20;;;;;;4038641;29;20080;-74
2024/01/29 06:49:30;;;;;;;14.05;7.82;;;0.80;87.30;;;;;;4038746;29;20479;-76
2024/01/29 06:51:33;;;;;;;14.25;7.95;;;0.80;86.80;;;;;;4038707;29;20377;-74
2024/01/29 06:53:35;;;;;;;15.77;8.05;;;0.80;86.50;;;;;;4038591;29;20456;-75
2024/01/29 06:55:37;;;;;;;12.63;7.25;;;0.90;86.00;;;;;;4038512;29;20053;-77
2024/01/29 06:57:39;;;;;;;13.48;7.68;;;1.00;85.70;;;;;;4038671;29;20049;-74
2024/01/29 06:59:40;;;;;;;18.30;7.93;;;1.00;85.40;;;;;;4038535;29;20057;-74
2024/01/29 07:01:42;;;;;;;16.83;8.23;;;1.00;85.10;;;;;;4038364;29;20116;-75
2024/01/29 07:03:43;;;;;;;13.82;7.75;;;1.00;84.90;;;;;;4038541;29;20055;-74
2024/01/29 07:05:48;;;;;;;16.35;7.80;;;1.00;84.80;;;;;;4038542;29;20049;-74
2024/01/29 07:07:51;;;;;;;14.27;8.05;;;1.10;85.00;;;;;;4038638;29;20121;-75
2024/01/29 07:09:55;;;;;;;13.82;7.60;;;1.10;84.90;;;;;;4038399;29;20078;-78
2024/01/29 07:11:57;;;;;;;12.23;7.88;;;1.10;84.80;;;;;;4038171;29;20131;-74
2024/01/29 07:14:00;;;;;;;15.13;8.07;;;1.10;84.70;;;;;;4038407;29;20511;-74
2024/01/29 07:16:02;;;;;;;13.40;8.00;;;1.10;84.60;;;;;;4038287;29;20049;-73
2024/01/29 07:18:05;;;;;;;13.82;8.60;;;1.00;84.70;;;;;;4037702;29;20085;-74
2024/01/29 07:20:08;;;;;;;15.65;8.40;;;0.90;85.40;;;;;;4038063;29;20057;-74
2024/01/29 07:22:14;;;;;;;16.30;8.68;;;1.00;85.70;;;;;;4038257;29;20092;-76
2024/01/29 07:24:17;;;;;;;15.68;8.45;;;1.00;85.40;;;;;;4038495;29;20078;-76
2024/01/29 07:26:19;;;;;;;11.43;7.30;;;1.00;85.20;;;;;;4038235;29;20049;-76
2024/01/29 07:28:21;;;;;;;12.77;7.90;;;1.10;84.90;;;;;;4037898;29;20116;-76
2024/01/29 07:30:23;;;;;;;14.38;7.43;;;1.10;84.70;;;;;;4037766;29;20149;-77
2024/01/29 07:32:31;;;;;;;11.48;6.90;;;1.20;84.60;;;;;;4038059;29;20057;-76
2024/01/29 07:34:33;;;;;;;14.55;7.65;;;1.20;84.40;;;;;;4037951;29;20105;-76
2024/01/29 07:36:37;;;;;;;12.30;7.55;;;1.20;84.40;;;;;;4038715;29;20056;-77
2024/01/29 07:38:40;;;;;;;12.48;7.78;;;1.30;84.30;;;;;;4039043;29;20053;-75
2024/01/29 07:40:43;;;;;;;15.02;8.80;;;1.30;84.30;;;;;;4039023;29;20073;-75
2024/01/29 07:42:45;;;;;;;12.48;7.75;;;1.30;84.40;;;;;;4039299;29;20475;-75
2024/01/29 07:44:49;;;;;;;14.35;8.13;;;1.40;84.30;;;;;;4038202;29;20049;-76
2024/01/29 07:46:50;;;;;;;13.98;7.88;;;1.40;84.20;;;;;;4037989;29;20057;-74
2024/01/29 07:48:52;;;;;;;11.77;7.50;;;1.40;84.30;;;;;;4038212;29;20459;-76
2024/01/29 07:50:54;;;;;;;17.17;8.63;;;1.40;84.30;;;;;;4038370;29;20101;-76
2024/01/29 07:52:56;;;;;;;15.60;9.07;;;1.40;84.20;;;;;;4039735;29;20566;-75
2024/01/29 07:54:59;;;;;;;16.67;9.40;;;1.40;84.20;;;;;;4038876;29;20131;-75
2024/01/29 07:57:03;;;;;;;13.43;8.02;;;1.50;84.10;;;;;;4038428;29;20470;-74
2024/01/29 07:59:05;;;;;;;14.70;8.30;;;1.50;83.80;;;;;;4038257;29;20132;-75
2024/01/29 08:01:06;;;;;;;13.93;8.13;;;1.50;83.70;;;;;;4037780;29;20455;-77
2024/01/29 08:03:09;;;;;;;13.45;7.80;;;1.50;83.60;;;;;;4037650;29;20108;-74
2024/01/29 08:05:11;;;;;;;12.55;7.50;;;1.50;84.00;;;;;;4037992;29;20053;-75
2024/01/29 08:07:12;;;;;;;13.65;7.93;;;1.50;84.40;;;;;;4038114;29;20104;-75
2024/01/29 08:09:14;;;;;;;13.02;7.60;;;1.60;84.20;;;;;;4038161;29;20076;-75
2024/01/29 08:11:16;;;;;;;13.05;7.45;;;1.60;84.80;;;;;;4037998;29;20531;-75
2024/01/29 08:13:19;;;;;;;13.57;8.40;;;1.60;83.90;;;;;;4037884;29;20113;-75
2024/01/29 08:15:22;;;;;;;15.45;8.15;;;1.70;83.80;;;;;;4037882;29;20531;-75
2024/01/29 08:17:24;;;;;;;12.27;7.60;;;1.70;83.70;;;;;;4037729;29;20053;-75
2024/01/29 08:19:26;;;;;;;16.13;8.73;;;1.70;83.50;;;;;;4037787;29;20049;-75
2024/01/29 08:21:28;;;;;;;12.50;8.07;;;1.80;83.70;;;;;;4037555;29;20059;-76
2024/01/29 08:23:30;;;;;;;14.02;7.78;;;1.80;83.80;;;;;;4037597;29;20045;-75
2024/01/29 08:25:31;;;;;;;16.20;8.13;;;1.80;83.60;;;;;;4037496;29;20053;-75
2024/01/29 08:27:33;;;;;;;12.65;7.72;;;1.80;83.70;;;;;;4037582;29;20116;-74
2024/01/29 08:29:36;;;;;;;15.40;8.65;;;1.90;83.60;;;;;;4040438;29;20097;-76
2024/01/29 08:31:38;;;;;;;13.70;8.20;;;1.90;83.90;;;;;;4040493;29;20057;-74
2024/01/29 08:33:43;;;;;;;13.05;8.50;;;1.90;84.80;;;;;;4040597;29;20460;-74
2024/01/29 08:35:45;;;;;;;13.20;8.40;;;1.90;85.20;;;;;;4040587;29;20049;-75
2024/01/29 08:37:47;;;;;;;12.05;7.93;;;1.90;85.00;;;;;;4040717;29;20057;-73
2024/01/29 08:39:49;;;;;;;13.70;8.07;;;1.90;85.80;;;;;;4040174;29;20049;-74
2024/01/29 08:41:50;;;;;;;14.15;8.23;;;1.90;85.90;;;;;;4040615;29;20049;-74
2024/01/29 08:43:51;;;;;;;12.73;7.60;;;2.00;85.70;;;;;;4040624;29;20093;-73
2024/01/29 08:45:55;;;;;;;11.40;7.32;;;2.10;85.50;;;;;;4040564;29;20121;-75
2024/01/29 08:47:56;;;;;;;10.25;6.80;;;2.10;85.40;;;;;;4040502;29;20052;-75
2024/01/29 08:49:58;;;;;;;13.40;7.88;;;2.10;85.80;;;;;;4040558;29;20153;-75
2024/01/29 08:52:00;;;;;;;12.98;7.97;;;2.00;86.40;;;;;;4040461;29;20448;-75
2024/01/29 08:54:02;;;;;;;15.60;8.93;;;2.00;86.90;;;;;;4040595;29;20109;-73
2024/01/29 08:56:07;;;;;;;13.65;8.55;;;1.90;87.10;;;;;;4040202;29;20049;-76
2024/01/29 08:58:09;;;;;;;14.27;8.75;;;1.90;87.10;;;;;;4040612;29;20099;-75
2024/01/29 09:00:13;;;;;;;13.95;8.98;;;1.90;87.00;;;;;;4040522;29;20108;-75
2024/01/29 09:02:15;;;;;;;13.77;8.65;;;2.10;86.20;;;;;;4040322;29;20109;-75
2024/01/29 09:04:17;;;;;;;12.10;8.15;;;2.20;85.50;;;;;;4039889;29;20076;-74
2024/01/29 09:06:19;;;;;;;17.25;9.07;;;2.10;85.40;;;;;;4040536;29;20426;-76
2024/01/29 09:08:22;;;;;;;16.00;9.63;;;2.20;86.50;;;;;;4040335;29;20045;-74
2024/01/29 09:10:23;;;;;;;17.38;10.45;;;2.20;87.20;;;;;;4040361;29;20053;-75
2024/01/29 09:12:25;;;;;;;16.92;10.48;;;2.30;86.10;;;;;;4040071;29;20048;-75
2024/01/29 09:14:27;;;;;;;17.13;9.90;;;2.40;85.10;;;;;;4040037;29;20479;-74
2024/01/29 09:16:29;;;;;;;13.93;8.23;;;2.50;84.80;;;;;;4040123;29;20506;-75
2024/01/29 09:18:32;;;;;;;16.38;7.40;;;2.60;84.60;;;;;;4040205;29;20049;-77
2024/01/29 09:20:34;;;;;;;11.98;7.10;;;2.70;83.60;;;;;;4040064;29;20049;-76
2024/01/29 09:22:36;;;;;;;9.68;5.90;;;2.80;82.80;;;;;;4040167;29;20097;-75
2024/01/29 09:24:38;;;;;;;11.27;5.82;;;2.90;81.70;;;;;;4039963;29;20104;-74
2024/01/29 09:26:40;;;;;;;11.35;7.03;;;3.10;80.30;;;;;;4040195;29;20519;-75
2024/01/29 09:28:43;;;;;;;14.13;9.02;;;3.20;80.00;;;;;;4039993;29;20057;-75
2024/01/29 09:30:45;;;;;;;14.65;7.93;;;3.20;82.20;;;;;;4040237;29;20045;-76
2024/01/29 09:32:46;;;;;;;15.55;9.35;;;3.30;82.10;;;;;;4040147;29;20057;-74
2024/01/29 09:34:50;;;;;;;33.65;19.75;;;3.40;82.20;;;;;;4039506;29;20048;-76
2024/01/29 09:36:52;;;;;;;26.00;15.55;;;3.40;82.00;;;;;;4039906;29;20052;-75
2024/01/29 09:38:53;;;;;;;20.42;11.68;;;3.50;81.80;;;;;;4039950;29;20045;-75
2024/01/29 09:40:58;;;;;;;19.40;11.05;;;3.60;81.80;;;;;;4036717;29;20053;-74
2024/01/29 09:43:07;;;;;;;18.25;10.85;;;3.60;81.80;;;;;;4036762;29;20096;-75
2024/01/29 09:45:12;;;;;;;15.05;9.80;;;3.60;81.90;;;;;;4037669;29;20623;-75
2024/01/29 09:47:15;;;;;;;17.05;10.55;;;3.70;81.90;;;;;;4037593;29;20149;-76
2024/01/29 09:49:18;;;;;;;15.35;9.65;;;3.80;82.00;;;;;;4037904;29;20053;-75
2024/01/29 09:51:23;;;;;;;20.20;10.43;;;3.80;82.10;;;;;;4037519;29;20075;-75
2024/01/29 09:53:25;;;;;;;30.10;11.95;;;3.80;82.30;;;;;;4037791;29;20052;-74
2024/01/29 09:55:28;;;;;;;44.17;13.85;;;3.80;82.20;;;;;;4037745;29;20104;-75
2024/01/29 09:57:31;;;;;;;31.00;12.38;;;3.90;82.00;;;;;;4037477;29;20060;-76
2024/01/29 09:59:32;;;;;;;32.25;12.25;;;3.90;82.10;;;;;;4037617;29;20053;-74
2024/01/29 10:01:36;;;;;;;23.10;11.23;;;4.00;82.10;;;;;;4037093;29;20117;-74
2024/01/29 10:03:39;;;;;;;35.53;11.93;;;4.00;82.10;;;;;;4036874;29;20053;-75
2024/01/29 10:05:41;;;;;;;23.00;11.57;;;4.10;81.90;;;;;;4037698;29;20384;-75
2024/01/29 10:07:45;;;;;;;27.67;11.68;;;4.10;81.80;;;;;;4037697;29;20064;-76
2024/01/29 10:09:47;;;;;;;24.00;12.10;;;4.20;81.50;;;;;;4037637;29;20049;-76
2024/01/29 10:11:49;;;;;;;24.00;13.10;;;4.20;81.60;;;;;;4037781;29;20391;-75
2024/01/29 10:13:59;;;;;;;21.48;11.73;;;4.30;81.60;;;;;;4037026;29;20101;-76
2024/01/29 10:16:01;;;;;;;20.50;11.52;;;4.30;81.40;;;;;;4037024;29;20057;-76
2024/01/29 10:18:03;;;;;;;18.85;11.50;;;4.30;81.00;;;;;;4037179;29;20049;-76
2024/01/29 10:20:19;;;;;;;33.35;17.55;;;4.40;80.90;;;;;;4036839;29;20053;-76
2024/01/29 10:22:24;;;;;;;33.60;18.08;;;4.40;81.20;;;;;;4037325;29;20080;-74
2024/01/29 10:24:27;;;;;;;26.92;12.80;;;4.50;81.00;;;;;;4037030;29;20092;-75
2024/01/29 10:26:29;;;;;;;80.15;37.20;;;4.50;80.40;;;;;;4037200;29;20097;-76
2024/01/29 10:28:31;;;;;;;53.42;24.52;;;4.60;80.10;;;;;;4036920;29;20491;-74
2024/01/29 10:30:33;;;;;;;31.83;17.15;;;4.60;79.60;;;;;;4037011;29;20059;-76
2024/01/29 10:32:36;;;;;;;28.08;14.90;;;4.70;79.50;;;;;;4037069;29;20418;-74
2024/01/29 10:34:37;;;;;;;21.80;12.43;;;4.70;79.00;;;;;;4037090;29;20053;-74
2024/01/29 10:36:40;;;;;;;18.65;11.32;;;4.80;79.10;;;;;;4037061;29;20045;-75
2024/01/29 10:38:44;;;;;;;18.45;10.02;;;4.80;78.90;;;;;;4037024;29;20558;-77
2024/01/29 10:40:46;;;;;;;17.20;9.90;;;4.90;78.20;;;;;;4036615;29;20105;-77
2024/01/29 10:42:50;;;;;;;14.68;9.45;;;5.00;77.60;;;;;;4036794;29;20049;-76
2024/01/29 10:44:54;;;;;;;15.25;8.98;;;5.10;77.50;;;;;;4036927;29;20060;-76
2024/01/29 10:47:00;;;;;;;13.25;8.43;;;5.10;76.80;;;;;;4036754;29;20060;-75
2024/01/29 10:49:02;;;;;;;15.60;7.93;;;5.20;75.90;;;;;;4036958;29;20109;-74
2024/01/29 10:51:07;;;;;;;14.77;8.38;;;5.30;75.30;;;;;;4036235;29;20749;-77
2024/01/29 10:53:12;;;;;;;13.90;8.02;;;5.30;75.40;;;;;;4035997;29;20112;-75
2024/01/29 10:55:16;;;;;;;13.98;7.97;;;5.40;74.70;;;;;;4036624;29;20056;-77
2024/01/29 10:57:22;;;;;;;14.98;8.55;;;5.50;74.30;;;;;;4036540;29;20093;-74
2024/01/29 10:59:25;;;;;;;14.63;7.38;;;5.60;74.60;;;;;;4036549;29;20061;-75
2024/01/29 11:01:29;;;;;;;12.98;8.00;;;5.60;74.70;;;;;;4036438;29;20404;-75
2024/01/29 11:03:31;;;;;;;15.00;8.77;;;5.70;74.80;;;;;;4034486;29;20175;-75
2024/01/29 11:05:34;;;;;;;13.80;7.60;;;5.80;75.20;;;;;;4036605;29;20061;-76
2024/01/29 11:07:37;;;;;;;13.55;7.63;;;5.80;73.90;;;;;;4036665;29;20456;-76
2024/01/29 11:09:45;;;;;;;13.00;7.60;;;5.90;73.70;;;;;;4036307;29;20496;-74
2024/01/29 11:11:48;;;;;;;10.80;6.78;;;5.90;73.00;;;;;;4036500;29;20060;-75
2024/01/29 11:13:52;;;;;;;11.27;6.63;;;6.00;72.20;;;;;;4036262;29;20049;-76
2024/01/29 11:15:54;;;;;;;13.27;6.85;;;6.10;71.80;;;;;;4036115;29;20056;-76
2024/01/29 11:17:57;;;;;;;11.40;6.57;;;6.10;70.90;;;;;;4036234;29;20053;-76
2024/01/29 11:20:04;;;;;;;12.10;7.20;;;6.20;70.90;;;;;;4036162;29;20076;-75
2024/01/29 11:22:06;;;;;;;14.32;6.78;;;6.30;70.50;;;;;;4036201;29;20132;-77
2024/01/29 11:24:11;;;;;;;11.65;6.38;;;6.40;69.70;;;;;;4036410;29;20056;-75
2024/01/29 11:26:15;;;;;;;9.95;6.43;;;6.40;68.90;;;;;;4036218;29;20508;-77
2024/01/29 11:28:17;;;;;;;10.93;6.60;;;6.50;68.80;;;;;;4035944;29;20049;-74
2024/01/29 11:30:23;;;;;;;12.32;6.90;;;6.50;68.60;;;;;;4036270;29;20051;-76
2024/01/29 11:32:25;;;;;;;11.98;6.60;;;6.60;69.70;;;;;;4036224;29;20053;-75
2024/01/29 11:34:27;;;;;;;11.48;6.47;;;6.70;69.60;;;;;;4035982;29;20049;-77
2024/01/29 11:36:29;;;;;;;12.25;6.97;;;6.80;70.10;;;;;;4036273;29;20637;-76
2024/01/29 11:38:31;;;;;;;11.32;6.80;;;6.80;70.20;;;;;;4036037;29;20057;-75
2024/01/29 11:40:40;;;;;;;9.85;5.40;;;6.90;70.90;;;;;;4035933;29;20411;-74
2024/01/29 11:42:42;;;;;;;11.68;5.40;;;6.90;69.60;;;;;;4035885;29;20057;-73
2024/01/29 11:44:44;;;;;;;8.25;5.07;;;7.00;68.40;;;;;;4035920;29;20120;-76
2024/01/29 11:46:48;;;;;;;12.48;6.07;;;7.00;68.00;;;;;;4036188;29;20118;-74
2024/01/29 11:48:50;;;;;;;8.40;5.30;;;7.10;68.10;;;;;;4035829;29;20487;-76
2024/01/29 11:50:53;;;;;;;7.88;5.05;;;7.20;67.90;;;;;;4035726;29;20204;-74
2024/01/29 11:52:54;;;;;;;11.23;5.38;;;7.20;68.20;;;;;;4035532;29;20056;-75
2024/01/29 11:54:56;;;;;;;9.60;5.10;;;7.30;67.70;;;;;;4035802;29;20053;-75
2024/01/29 11:56:58;;;;;;;10.75;6.13;;;7.50;75.00;;;;;;4035896;29;20053;-77
2024/01/29 11:59:01;;;;;;;9.80;5.90;;;7.60;76.90;;;;;;4035882;29;20048;-78
2024/01/29 12:01:02;;;;;;;9.57;6.05;;;7.70;72.70;;;;;;4035823;29;20065;-77
2024/01/29 12:03:07;;;;;;;10.73;5.85;;;7.90;72.60;;;;;;4033493;29;20052;-74
2024/01/29 12:05:12;;;;;;;11.05;6.05;;;8.00;70.00;;;;;;4035819;29;20088;-75
2024/01/29 12:07:14;;;;;;;11.35;5.70;;;8.10;69.70;;;;;;4035849;29;20064;-78
2024/01/29 12:09:16;;;;;;;11.07;5.82;;;8.20;70.10;;;;;;4035864;29;20415;-76
2024/01/29 12:11:17;;;;;;;11.20;6.05;;;8.40;69.70;;;;;;4035500;29;20464;-77
2024/01/29 12:13:21;;;;;;;10.63;5.40;;;8.50;69.90;;;;;;4035794;29;20057;-75
2024/01/29 12:15:23;;;;;;;9.82;5.72;;;8.70;69.80;;;;;;4035286;29;20472;-77
2024/01/29 12:17:25;;;;;;;9.85;6.03;;;8.80;68.60;;;;;;4035481;29;20108;-78
2024/01/29 12:19:28;;;;;;;13.95;6.35;;;9.00;68.50;;;;;;4035690;29;20483;-77
2024/01/29 12:21:30;;;;;;;11.15;6.22;;;9.20;65.70;;;;;;4035706;29;20117;-79
2024/01/29 12:23:33;;;;;;;10.23;6.30;;;9.40;66.00;;;;;;4035783;29;20108;-77
2024/01/29 12:25:36;;;;;;;12.50;6.40;;;9.60;67.50;;;;;;4035664;29;20056;-78
2024/01/29 12:27:38;;;;;;;12.57;6.40;;;9.80;63.70;;;;;;4035389;29;20536;-74
2024/01/29 12:29:40;;;;;;;12.40;6.22;;;9.90;62.50;;;;;;4035687;29;20049;-75
2024/01/29 12:31:42;;;;;;;13.30;6.80;;;10.10;62.80;;;;;;4035581;29;20057;-75
2024/01/29 12:33:47;;;;;;;9.68;6.03;;;10.20;62.00;;;;;;4035898;29;20483;-75
2024/01/29 12:35:50;;;;;;;12.30;6.57;;;10.40;61.40;;;;;;4035693;29;20057;-74
2024/01/29 12:37:53;;;;;;;11.70;6.15;;;10.50;60.50;;;;;;4034960;29;20108;-76
2024/01/29 12:39:56;;;;;;;13.02;6.65;;;10.70;60.80;;;;;;4034571;29;20061;-74
2024/01/29 12:41:58;;;;;;;10.52;6.50;;;10.80;60.60;;;;;;4035569;29;20142;-75
2024/01/29 12:44:10;;;;;;;12.25;6.75;;;10.90;60.90;;;;;;4035541;29;20200;-75
2024/01/29 12:46:13;;;;;;;16.77;9.82;;;11.10;58.70;;;;;;4035599;29;20128;-75
2024/01/29 12:48:19;;;;;;;25.73;13.48;;;11.30;59.70;;;;;;4035444;29;20117;-76
2024/01/29 12:50:21;;;;;;;22.48;10.85;;;11.50;60.70;;;;;;4035659;29;20159;-78
2024/01/29 12:52:23;;;;;;;20.27;8.98;;;11.60;59.40;;;;;;4035466;29;20388;-76
2024/01/29 12:54:25;;;;;;;11.70;6.97;;;11.70;58.40;;;;;;4034914;29;20060;-77
2024/01/29 12:56:29;;;;;;;13.50;7.20;;;11.90;58.60;;;;;;4035330;29;20053;-77
2024/01/29 12:58:32;;;;;;;11.23;6.82;;;11.90;56.90;;;;;;4035232;29;20460;-76
2024/01/29 13:00:34;;;;;;;10.98;6.47;;;12.10;57.20;;;;;;4035237;29;20065;-78
2024/01/29 13:02:36;;;;;;;11.18;7.18;;;12.30;55.80;;;;;;4033451;29;20056;-78
2024/01/29 13:04:38;;;;;;;13.13;7.65;;;12.50;56.10;;;;;;4034888;29;20468;-78
2024/01/29 13:06:40;;;;;;;11.80;7.80;;;12.70;56.10;;;;;;4034992;29;20060;-78
2024/01/29 13:08:43;;;;;;;12.23;7.22;;;13.00;55.00;;;;;;4035156;29;20053;-77
2024/01/29 13:10:45;;;;;;;13.30;7.47;;;13.40;51.90;;;;;;4035318;29;20089;-77
2024/01/29 13:12:46;;;;;;;12.95;7.55;;;13.70;52.60;;;;;;4035169;29;20056;-77
2024/01/29 13:14:48;;;;;;;12.57;7.10;;;14.30;51.00;;;;;;4035291;29;20488;-78
2024/01/29 13:16:50;;;;;;;10.85;6.65;;;15.40;49.10;;;;;;4037907;29;20053;-77
2024/01/29 13:18:52;;;;;;;11.05;7.10;;;18.20;44.40;;;;;;4037939;29;20067;-76
2024/01/29 13:20:53;;;;;;;10.70;7.35;;;20.30;39.80;;;;;;4038140;29;20057;-77
2024/01/29 13:22:56;;;;;;;13.00;7.40;;;21.90;36.00;;;;;;4035711;29;20048;-77
2024/01/29 13:24:59;;;;;;;14.70;7.80;;;23.60;32.70;;;;;;4037723;29;20065;-76
2024/01/29 13:27:02;;;;;;;13.20;8.18;;;24.90;31.40;;;;;;4037578;29;20057;-78
2024/01/29 13:29:04;;;;;;;14.25;7.95;;;26.10;29.10;;;;;;4037834;29;20152;-79
2024/01/29 13:31:06;;;;;;;12.38;7.53;;;27.30;26.70;;;;;;4037670;29;20163;-78
2024/01/29 13:33:08;;;;;;;11.93;7.15;;;27.90;26.30;;;;;;4037749;29;20590;-77
2024/01/29 13:35:10;;;;;;;11.75;7.88;;;28.30;25.10;;;;;;4037328;29;20387;-76
2024/01/29 13:37:12;;;;;;;15.43;7.97;;;29.30;25.60;;;;;;4037747;29;20120;-77
2024/01/29 13:39:13;;;;;;;12.85;7.45;;;29.90;24.60;;;;;;4037279;29;20056;-76
2024/01/29 13:41:16;;;;;;;10.93;7.82;;;30.60;24.30;;;;;;4037425;29;20475;-77
2024/01/29 13:43:18;;;;;;;15.48;7.80;;;30.80;23.10;;;;;;4037689;29;20108;-77
2024/01/29 13:45:19;;;;;;;12.13;7.78;;;30.80;22.30;;;;;;4037527;29;20045;-78
2024/01/29 13:47:21;;;;;;;13.05;7.65;;;31.10;23.00;;;;;;4037584;29;20053;-77
2024/01/29 13:49:23;;;;;;;14.23;7.65;;;31.10;22.40;;;;;;4037766;29;20053;-75
2024/01/29 13:51:25;;;;;;;13.13;7.38;;;31.40;22.20;;;;;;4037716;29;20518;-78
2024/01/29 13:53:27;;;;;;;13.15;7.45;;;30.90;21.90;;;;;;4039214;29;20057;-78
2024/01/29 13:55:29;;;;;;;12.65;7.22;;;30.80;22.70;;;;;;4039142;29;20053;-79
2024/01/29 13:57:32;;;;;;;9.98;6.82;;;30.10;23.50;;;;;;4038657;29;20109;-79
2024/01/29 13:59:35;;;;;;;11.27;6.60;;;30.00;22.80;;;;;;4038245;29;20121;-78
2024/01/29 14:01:37;;;;;;;11.25;7.03;;;29.60;22.60;;;;;;4035946;29;20146;-79
2024/01/29 14:03:39;;;;;;;11.15;6.95;;;29.00;23.40;;;;;;4036620;29;20057;-76
2024/01/29 14:05:41;;;;;;;14.27;8.20;;;28.30;23.30;;;;;;4037312;29;20483;-79
2024/01/29 14:07:43;;;;;;;11.45;7.05;;;27.50;24.50;;;;;;4037647;29;20403;-76
2024/01/29 14:09:45;;;;;;;10.30;7.10;;;26.80;25.50;;;;;;4037474;29;20188;-78
2024/01/29 14:11:47;;;;;;;12.10;6.70;;;25.80;26.50;;;;;;4037309;29;20121;-79
2024/01/29 14:13:50;;;;;;;12.43;6.78;;;24.80;27.50;;;;;;4037151;29;20052;-76
2024/01/29 14:15:53;;;;;;;11.57;6.85;;;23.70;28.40;;;;;;4036761;29;20057;-77
2024/01/29 14:17:55;;;;;;;12.60;6.90;;;23.00;30.10;;;;;;4036867;29;20053;-76
2024/01/29 14:19:56;;;;;;;9.95;6.47;;;22.50;30.70;;;;;;4037092;29;20053;-77
2024/01/29 14:21:58;;;;;;;11.38;7.28;;;22.20;31.70;;;;;;4037200;29;20113;-78
2024/01/29 14:23:59;;;;;;;11.13;6.95;;;21.80;33.00;;;;;;4037055;29;20064;-75
2024/01/29 14:26:02;;;;;;;11.48;7.13;;;21.30;35.00;;;;;;4036550;29;20061;-76
2024/01/29 14:28:05;;;;;;;11.43;6.80;;;20.90;34.70;;;;;;4036988;29;20662;-76
2024/01/29 14:30:09;;;;;;;10.48;6.78;;;20.50;35.00;;;;;;4036788;29;20065;-76
2024/01/29 14:32:12;;;;;;;12.80;7.40;;;20.20;34.50;;;;;;4036645;29;20516;-76
2024/01/29 14:34:14;;;;;;;10.52;7.07;;;19.60;36.40;;;;;;4036594;29;20053;-78
2024/01/29 14:36:17;;;;;;;10.40;7.10;;;19.00;36.60;;;;;;4036487;29;20125;-79
2024/01/29 14:38:19;;;;;;;11.98;6.78;;;18.50;37.40;;;;;;4036420;29;20480;-76
2024/01/29 14:40:20;;;;;;;10.07;6.50;;;18.20;39.40;;;;;;4036039;29;20081;-76
2024/01/29 14:42:22;;;;;;;8.95;6.72;;;18.00;37.60;;;;;;4036523;29;20464;-77
2024/01/29 14:44:24;;;;;;;10.90;6.30;;;17.70;39.30;;;;;;4036514;29;20057;-76
2024/01/29 14:46:27;;;;;;;11.68;6.70;;;17.40;39.30;;;;;;4036593;29;20519;-78
2024/01/29 14:48:29;;;;;;;12.93;7.25;;;17.10;40.40;;;;;;4036536;29;20053;-76
2024/01/29 14:50:31;;;;;;;10.85;6.70;;;16.90;39.30;;;;;;4036377;29;20057;-76
2024/01/29 14:52:32;;;;;;;12.20;6.55;;;16.70;40.70;;;;;;4036387;29;20076;-77
2024/01/29 14:54:34;;;;;;;11.35;6.82;;;16.50;40.80;;;;;;4036347;29;20060;-76
2024/01/29 14:56:38;;;;;;;9.75;6.63;;;16.30;42.00;;;;;;4036214;29;20053;-77
2024/01/29 14:58:40;;;;;;;9.40;6.80;;;16.20;42.10;;;;;;4035921;29;20505;-77
2024/01/29 15:00:43;;;;;;;9.85;6.57;;;15.90;43.50;;;;;;4035098;29;20607;-76
2024/01/29 15:02:46;;;;;;;11.48;7.38;;;15.80;42.40;;;;;;4034058;29;20539;-78
2024/01/29 15:04:48;;;;;;;15.10;7.55;;;15.70;42.40;;;;;;4035267;29;20048;-77
2024/01/29 15:06:50;;;;;;;13.63;8.13;;;15.50;43.10;;;;;;4035990;29;20056;-78
2024/01/29 15:08:52;;;;;;;14.27;8.20;;;15.50;43.50;;;;;;4035110;29;20049;-78
2024/01/29 15:10:57;;;;;;;30.55;16.85;;;15.50;44.40;;;;;;4035733;29;20049;-76
2024/01/29 15:12:58;;;;;;;16.88;9.00;;;15.50;44.00;;;;;;4036524;29;20460;-77
2024/01/29 15:15:00;;;;;;;14.38;7.90;;;15.40;42.90;;;;;;4036659;29;20053;-78
2024/01/29 15:17:05;;;;;;;14.13;8.35;;;15.30;44.80;;;;;;4036626;29;20455;-77
2024/01/29 15:19:08;;;;;;;11.40;7.28;;;15.10;43.70;;;;;;4036090;29;21564;-77
2024/01/29 15:21:10;;;;;;;19.05;8.45;;;15.00;43.50;;;;;;4036230;29;20109;-75
2024/01/29 15:23:12;;;;;;;17.38;10.85;;;14.90;44.50;;;;;;4036273;29;20052;-76
2024/01/29 15:25:14;;;;;;;20.65;12.50;;;14.80;47.20;;;;;;4036205;29;20057;-76
2024/01/29 15:27:16;;;;;;;15.02;9.02;;;14.70;47.20;;;;;;4035767;29;20129;-76
2024/01/29 15:29:17;;;;;;;11.02;7.05;;;14.70;45.10;;;;;;4036114;29;20105;-78
2024/01/29 15:31:19;;;;;;;14.65;7.97;;;14.70;43.80;;;;;;4035885;29;20049;-77
2024/01/29 15:33:21;;;;;;;13.48;8.43;;;14.90;43.60;;;;;;4036281;29;20053;-76
2024/01/29 15:35:25;;;;;;;11.82;7.53;;;15.10;43.80;;;;;;4035763;29;20048;-77
2024/01/29 15:37:28;;;;;;;10.65;7.22;;;15.90;43.00;;;;;;4035103;29;20133;-76
2024/01/29 15:39:30;;;;;;;14.30;7.28;;;16.60;41.90;;;;;;4035606;29;20088;-78
2024/01/29 15:41:32;;;;;;;11.30;6.85;;;16.80;42.30;;;;;;4036319;29;20053;-78
2024/01/29 15:43:35;;;;;;;14.60;7.35;;;16.80;43.00;;;;;;4036089;29;20048;-79
2024/01/29 15:45:37;;;;;;;14.75;6.97;;;16.80;41.60;;;;;;4035922;29;20049;-77
2024/01/29 15:47:39;;;;;;;15.82;7.43;;;16.50;42.50;;;;;;4035403;29;20053;-77
2024/01/29 15:49:41;;;;;;;13.10;6.13;;;16.10;42.00;;;;;;4034241;29;20080;-78
2024/01/29 15:51:44;;;;;;;14.55;7.05;;;15.50;42.40;;;;;;4035164;29;20053;-78
2024/01/29 15:53:46;;;;;;;12.90;7.13;;;15.10;44.00;;;;;;4035826;29;20045;-79
2024/01/29 15:55:48;;;;;;;11.55;6.82;;;14.70;44.20;;;;;;4036168;29;20447;-77
2024/01/29 15:57:50;;;;;;;14.95;6.88;;;14.70;45.50;;;;;;4035979;29;20059;-78
2024/01/29 15:59:52;;;;;;;16.35;6.88;;;14.50;45.50;;;;;;4035899;29;20052;-78
2024/01/29 16:01:56;;;;;;;11.52;6.60;;;14.20;45.60;;;;;;4033836;29;20165;-77
2024/01/29 16:03:58;;;;;;;11.45;6.40;;;13.90;45.90;;;;;;4035681;29;20053;-78
2024/01/29 16:06:00;;;;;;;12.13;6.82;;;13.60;46.40;;;;;;4035607;29;20049;-77
2024/01/29 16:08:09;;;;;;;10.38;6.32;;;13.40;46.80;;;;;;4035918;29;20061;-76
2024/01/29 16:10:11;;;;;;;15.18;6.00;;;13.20;47.70;;;;;;4035939;29;20056;-78
2024/01/29 16:12:13;;;;;;;10.98;5.85;;;13.00;48.50;;;;;;4036094;29;20053;-77
2024/01/29 16:14:15;;;;;;;9.93;5.80;;;12.80;49.30;;;;;;4035702;29;20083;-78
2024/01/29 16:16:17;;;;;;;12.13;5.65;;;12.70;49.60;;;;;;4035410;29;20105;-76
2024/01/29 16:18:19;;;;;;;12.60;5.88;;;12.50;51.00;;;;;;4035447;29;20045;-77
2024/01/29 16:20:21;;;;;;;10.02;5.40;;;12.40;50.50;;;;;;4035471;29;20055;-76
2024/01/29 16:22:23;;;;;;;8.68;5.53;;;12.30;50.70;;;;;;4035690;29;20165;-78
2024/01/29 16:24:26;;;;;;;9.75;5.40;;;12.10;51.40;;;;;;4035548;29;20041;-76
2024/01/29 16:26:28;;;;;;;11.25;5.55;;;12.00;51.10;;;;;;4020315;29;20050;-76
2024/01/29 16:28:30;;;;;;;15.27;8.40;;;11.90;51.00;;;;;;4019997;29;20121;-76
2024/01/29 16:30:32;;;;;;;30.05;16.65;;;11.80;51.20;;;;;;4020626;29;20106;-76
2024/01/29 16:32:34;;;;;;;19.65;12.02;;;11.70;51.50;;;;;;4020189;29;20049;-77
2024/01/29 16:34:38;;;;;;;14.40;8.15;;;11.60;51.60;;;;;;4024376;29;20109;-78
2024/01/29 16:36:40;;;;;;;10.38;6.93;;;11.50;51.70;;;;;;4035349;29;20045;-76